WARR/SUB METAR and TAF weather

Enter ICAO airport designator
Station Type Date Time Source
WARR METAR 2021/07/24 19:30 UTC NOAA

WARR 241930Z 25004KT 3000 HZ FEW020 22/21 Q1012 NOSIG


Station Type Date Time Source
WARR Decoded METAR 2021/07/24 19:30 UTC NOAA

Station name not available
Jul 24, 2021 - 03:30 PM EDT / 2021.07.24 1930 UTC
Wind: from the WSW (250 degrees) at 5 MPH (4 KT):0
Visibility: 1 mile(s):0
Sky conditions: mostly clear
Weather: haze
Temperature: 71 F (22 C)
Dew Point: 69 F (21 C)
Relative Humidity: 94%
Pressure (altimeter): 29.88 in. Hg (1012 hPa)
ob: WARR 241930Z 25004KT 3000 HZ FEW020 22/21 Q1012 NOSIG
cycle: 19

Station Type Date Time Source
WARR TAF 2021/07/24 18:12 UTC NOAA

TAF WARR 241700Z 2418/2518 25005KT 7000 FEW020
BECMG 2418/2420 5000 HZ
BECMG 2504/2506 09010KT 9999 NSW

Example: see airport list